sensor_id;sensor_type;location;lat;lon;timestamp;pressure;altitude;pressure_sealevel;temperature;humidity
40285;BME280;25997;50.214;19.354;2023-01-08T00:01:17;97762.72;;;4.48;66.71
40285;BME280;25997;50.214;19.354;2023-01-08T00:04:20;97771.41;;;4.49;66.62
40285;BME280;25997;50.214;19.354;2023-01-08T00:07:24;97768.19;;;4.54;66.67
40285;BME280;25997;50.214;19.354;2023-01-08T00:10:27;97762.22;;;4.57;66.48
40285;BME280;25997;50.214;19.354;2023-01-08T00:13:29;97767.28;;;4.54;66.45
40285;BME280;25997;50.214;19.354;2023-01-08T00:16:32;97758.56;;;4.53;66.38
40285;BME280;25997;50.214;19.354;2023-01-08T00:19:34;97749.97;;;4.54;66.39
40285;BME280;25997;50.214;19.354;2023-01-08T00:22:38;97754.47;;;4.58;66.23
40285;BME280;25997;50.214;19.354;2023-01-08T00:25:41;97750.34;;;4.62;66.07
40285;BME280;25997;50.214;19.354;2023-01-08T00:28:43;97751.28;;;4.64;66.03
40285;BME280;25997;50.214;19.354;2023-01-08T00:31:46;97750.44;;;4.65;65.92
40285;BME280;25997;50.214;19.354;2023-01-08T00:34:49;97753.13;;;4.66;65.92
40285;BME280;25997;50.214;19.354;2023-01-08T00:37:53;97752.34;;;4.69;65.84
40285;BME280;25997;50.214;19.354;2023-01-08T00:40:55;97742.72;;;4.66;65.61
40285;BME280;25997;50.214;19.354;2023-01-08T00:43:58;97725.97;;;4.60;65.60
40285;BME280;25997;50.214;19.354;2023-01-08T00:47:00;97728.16;;;4.51;65.50
40285;BME280;25997;50.214;19.354;2023-01-08T00:50:03;97720.97;;;4.45;65.23
40285;BME280;25997;50.214;19.354;2023-01-08T00:53:08;97720.44;;;4.33;65.07
40285;BME280;25997;50.214;19.354;2023-01-08T00:56:10;97721.53;;;4.19;65.10
40285;BME280;25997;50.214;19.354;2023-01-08T00:59:13;97727.66;;;4.02;65.14
40285;BME280;25997;50.214;19.354;2023-01-08T01:02:15;97720.94;;;3.88;65.01
40285;BME280;25997;50.214;19.354;2023-01-08T01:05:18;97734.22;;;3.76;65.47
40285;BME280;25997;50.214;19.354;2023-01-08T01:08:22;97740.84;;;3.70;65.55
40285;BME280;25997;50.214;19.354;2023-01-08T01:11:26;97738.69;;;3.61;65.58
40285;BME280;25997;50.214;19.354;2023-01-08T01:14:29;97735.72;;;3.54;65.66
40285;BME280;25997;50.214;19.354;2023-01-08T01:17:31;97729.28;;;3.45;65.73
40285;BME280;25997;50.214;19.354;2023-01-08T01:20:34;97729.06;;;3.41;65.78
40285;BME280;25997;50.214;19.354;2023-01-08T01:23:38;97722.69;;;3.34;65.89
40285;BME280;25997;50.214;19.354;2023-01-08T01:26:40;97729.47;;;3.31;65.66
40285;BME280;25997;50.214;19.354;2023-01-08T01:29:43;97712.25;;;3.51;65.13
40285;BME280;25997;50.214;19.354;2023-01-08T01:32:45;97711.59;;;3.74;64.15
40285;BME280;25997;50.214;19.354;2023-01-08T01:35:48;97698.72;;;3.75;63.85
40285;BME280;25997;50.214;19.354;2023-01-08T01:38:53;97699.69;;;3.77;63.72
40285;BME280;25997;50.214;19.354;2023-01-08T01:41:56;97691.69;;;3.73;63.50
40285;BME280;25997;50.214;19.354;2023-01-08T01:44:58;97694.19;;;3.71;63.61
40285;BME280;25997;50.214;19.354;2023-01-08T01:48:04;97686.16;;;3.67;63.48
40285;BME280;25997;50.214;19.354;2023-01-08T01:51:07;97682.19;;;3.56;63.73
40285;BME280;25997;50.214;19.354;2023-01-08T01:54:12;97681.31;;;3.55;63.67
40285;BME280;25997;50.214;19.354;2023-01-08T01:57:14;97682.06;;;3.53;63.66
40285;BME280;25997;50.214;19.354;2023-01-08T02:00:17;97669.88;;;3.52;63.60
40285;BME280;25997;50.214;19.354;2023-01-08T02:03:21;97666.34;;;3.50;63.41
40285;BME280;25997;50.214;19.354;2023-01-08T02:06:34;97680.16;;;3.49;63.60
40285;BME280;25997;50.214;19.354;2023-01-08T02:09:42;97667.00;;;3.45;63.78
40285;BME280;25997;50.214;19.354;2023-01-08T02:12:52;97664.25;;;3.42;63.68
40285;BME280;25997;50.214;19.354;2023-01-08T02:16:00;97661.75;;;3.44;63.69
40285;BME280;25997;50.214;19.354;2023-01-08T02:19:15;97653.97;;;3.44;63.50
40285;BME280;25997;50.214;19.354;2023-01-08T02:22:33;97658.13;;;3.40;63.56
40285;BME280;25997;50.214;19.354;2023-01-08T02:26:05;97665.84;;;3.39;63.45
40285;BME280;25997;50.214;19.354;2023-01-08T02:29:11;97663.09;;;3.36;63.73
40285;BME280;25997;50.214;19.354;2023-01-08T02:32:15;97664.59;;;3.31;63.77
40285;BME280;25997;50.214;19.354;2023-01-08T02:35:18;97663.75;;;3.32;63.57
40285;BME280;25997;50.214;19.354;2023-01-08T02:38:21;97657.56;;;2.77;65.25
40285;BME280;25997;50.214;19.354;2023-01-08T02:41:33;97663.75;;;2.63;65.61
40285;BME280;25997;50.214;19.354;2023-01-08T02:44:57;97664.25;;;2.56;65.82
40285;BME280;25997;50.214;19.354;2023-01-08T02:48:09;97668.25;;;2.49;66.11
40285;BME280;25997;50.214;19.354;2023-01-08T02:51:16;97663.06;;;2.49;66.11
40285;BME280;25997;50.214;19.354;2023-01-08T02:54:24;97661.13;;;2.45;66.14
40285;BME280;25997;50.214;19.354;2023-01-08T02:57:31;97655.94;;;2.45;66.19
40285;BME280;25997;50.214;19.354;2023-01-08T03:00:35;97655.78;;;2.42;66.38
40285;BME280;25997;50.214;19.354;2023-01-08T03:03:40;97648.84;;;2.41;66.28
40285;BME280;25997;50.214;19.354;2023-01-08T03:06:45;97650.53;;;2.41;66.59
40285;BME280;25997;50.214;19.354;2023-01-08T03:09:48;97655.78;;;2.42;66.49
40285;BME280;25997;50.214;19.354;2023-01-08T03:12:54;97653.28;;;2.44;66.52
40285;BME280;25997;50.214;19.354;2023-01-08T03:15:59;97643.84;;;2.44;66.30
40285;BME280;25997;50.214;19.354;2023-01-08T03:19:08;97641.97;;;2.42;66.17
40285;BME280;25997;50.214;19.354;2023-01-08T03:22:14;97641.72;;;2.37;65.84
40285;BME280;25997;50.214;19.354;2023-01-08T03:25:19;97631.03;;;2.31;66.08
40285;BME280;25997;50.214;19.354;2023-01-08T03:28:28;97631.03;;;2.31;66.59
40285;BME280;25997;50.214;19.354;2023-01-08T03:31:33;97622.41;;;2.82;65.09
40285;BME280;25997;50.214;19.354;2023-01-08T03:34:37;97626.28;;;2.56;65.24
40285;BME280;25997;50.214;19.354;2023-01-08T03:37:45;97632.34;;;2.39;65.93
40285;BME280;25997;50.214;19.354;2023-01-08T03:40:53;97626.03;;;2.34;66.34
40285;BME280;25997;50.214;19.354;2023-01-08T03:43:59;97620.69;;;2.31;66.36
40285;BME280;25997;50.214;19.354;2023-01-08T03:47:02;97630.19;;;2.31;66.40
40285;BME280;25997;50.214;19.354;2023-01-08T03:50:09;97626.84;;;2.33;66.41
40285;BME280;25997;50.214;19.354;2023-01-08T03:53:12;97618.19;;;2.33;66.37
40285;BME280;25997;50.214;19.354;2023-01-08T03:56:15;97619.94;;;2.34;66.26
40285;BME280;25997;50.214;19.354;2023-01-08T03:59:19;97616.50;;;2.33;66.28
40285;BME280;25997;50.214;19.354;2023-01-08T04:02:21;97612.19;;;2.34;66.31
40285;BME280;25997;50.214;19.354;2023-01-08T04:05:24;97619.94;;;2.34;66.37
40285;BME280;25997;50.214;19.354;2023-01-08T04:08:26;97614.78;;;2.34;66.34
40285;BME280;25997;50.214;19.354;2023-01-08T04:11:29;97619.16;;;2.35;66.13
40285;BME280;25997;50.214;19.354;2023-01-08T04:14:33;97615.72;;;2.36;66.26
40285;BME280;25997;50.214;19.354;2023-01-08T04:17:35;97601.81;;;2.34;66.50
40285;BME280;25997;50.214;19.354;2023-01-08T04:20:38;97592.28;;;2.33;66.22
40285;BME280;25997;50.214;19.354;2023-01-08T04:23:40;97600.19;;;2.36;66.24
40285;BME280;25997;50.214;19.354;2023-01-08T04:26:43;97595.84;;;2.35;66.08
40285;BME280;25997;50.214;19.354;2023-01-08T04:29:47;97600.84;;;2.32;66.30
40285;BME280;25997;50.214;19.354;2023-01-08T04:32:49;97616.41;;;2.32;66.31
40285;BME280;25997;50.214;19.354;2023-01-08T04:35:52;97612.19;;;2.34;66.20
40285;BME280;25997;50.214;19.354;2023-01-08T04:38:54;97606.75;;;2.29;66.21
40285;BME280;25997;50.214;19.354;2023-01-08T04:41:57;97605.06;;;2.30;66.12
40285;BME280;25997;50.214;19.354;2023-01-08T04:45:01;97604.19;;;2.29;66.28
40285;BME280;25997;50.214;19.354;2023-01-08T04:48:04;97613.50;;;2.26;66.03
40285;BME280;25997;50.214;19.354;2023-01-08T04:51:06;97610.84;;;2.24;66.20
40285;BME280;25997;50.214;19.354;2023-01-08T04:54:09;97609.84;;;2.22;65.98
40285;BME280;25997;50.214;19.354;2023-01-08T04:57:11;97602.75;;;2.18;66.00
40285;BME280;25997;50.214;19.354;2023-01-08T05:00:16;97598.47;;;2.19;66.16
40285;BME280;25997;50.214;19.354;2023-01-08T05:03:18;97590.38;;;2.13;66.16
40285;BME280;25997;50.214;19.354;2023-01-08T05:06:21;97583.28;;;2.09;66.21
40285;BME280;25997;50.214;19.354;2023-01-08T05:09:23;97573.91;;;2.11;66.46
40285;BME280;25997;50.214;19.354;2023-01-08T05:12:26;97565.16;;;2.09;66.31
40285;BME280;25997;50.214;19.354;2023-01-08T05:15:30;97554.63;;;2.06;66.06
40285;BME280;25997;50.214;19.354;2023-01-08T05:18:32;97563.13;;;2.03;66.01
40285;BME280;25997;50.214;19.354;2023-01-08T05:21:35;97561.28;;;2.00;66.48
40285;BME280;25997;50.214;19.354;2023-01-08T05:24:38;97565.66;;;2.02;66.52
40285;BME280;25997;50.214;19.354;2023-01-08T05:27:40;97571.63;;;2.00;66.73
40285;BME280;25997;50.214;19.354;2023-01-08T05:30:44;97584.09;;;2.08;66.62
40285;BME280;25997;50.214;19.354;2023-01-08T05:33:47;97574.03;;;2.14;66.35
40285;BME280;25997;50.214;19.354;2023-01-08T05:36:49;97575.09;;;2.17;66.13
40285;BME280;25997;50.214;19.354;2023-01-08T05:39:52;97578.66;;;2.19;65.99
40285;BME280;25997;50.214;19.354;2023-01-08T05:42:54;97581.38;;;2.22;66.05
40285;BME280;25997;50.214;19.354;2023-01-08T05:45:59;97570.94;;;2.21;65.85
40285;BME280;25997;50.214;19.354;2023-01-08T05:49:01;97580.34;;;2.19;65.84
40285;BME280;25997;50.214;19.354;2023-01-08T05:52:04;97574.84;;;2.13;65.68
40285;BME280;25997;50.214;19.354;2023-01-08T05:55:07;97561.38;;;2.02;65.75
40285;BME280;25997;50.214;19.354;2023-01-08T05:58:09;97562.72;;;1.95;65.88
40285;BME280;25997;50.214;19.354;2023-01-08T06:01:14;97566.88;;;1.92;66.00
40285;BME280;25997;50.214;19.354;2023-01-08T06:04:16;97564.88;;;1.86;66.30
40285;BME280;25997;50.214;19.354;2023-01-08T06:07:19;97559.53;;;1.83;66.38
40285;BME280;25997;50.214;19.354;2023-01-08T06:10:22;97554.91;;;1.78;66.58
40285;BME280;25997;50.214;19.354;2023-01-08T06:13:24;97551.47;;;1.77;66.61
40285;BME280;25997;50.214;19.354;2023-01-08T06:16:28;97550.31;;;1.72;66.43
40285;BME280;25997;50.214;19.354;2023-01-08T06:19:31;97553.72;;;1.71;66.58
40285;BME280;25997;50.214;19.354;2023-01-08T06:22:33;97567.47;;;1.70;66.92
40285;BME280;25997;50.214;19.354;2023-01-08T06:25:36;97570.72;;;1.66;67.06
40285;BME280;25997;50.214;19.354;2023-01-08T06:28:39;97568.13;;;1.66;66.88
40285;BME280;25997;50.214;19.354;2023-01-08T06:31:42;97567.31;;;1.67;67.16
40285;BME280;25997;50.214;19.354;2023-01-08T06:34:45;97563.19;;;1.71;66.71
40285;BME280;25997;50.214;19.354;2023-01-08T06:37:47;97564.00;;;1.70;66.59
40285;BME280;25997;50.214;19.354;2023-01-08T06:40:50;97555.25;;;1.68;67.02
40285;BME280;25997;50.214;19.354;2023-01-08T06:43:52;97559.47;;;1.66;66.74
40285;BME280;25997;50.214;19.354;2023-01-08T06:46:56;97562.13;;;1.67;66.86
40285;BME280;25997;50.214;19.354;2023-01-08T06:49:59;97555.19;;;1.66;66.61
40285;BME280;25997;50.214;19.354;2023-01-08T06:53:01;97556.88;;;1.66;66.47
40285;BME280;25997;50.214;19.354;2023-01-08T06:56:05;97547.97;;;1.61;66.47
40285;BME280;25997;50.214;19.354;2023-01-08T06:59:09;97546.13;;;1.58;66.40
40285;BME280;25997;50.214;19.354;2023-01-08T07:02:13;97542.56;;;1.56;66.58
40285;BME280;25997;50.214;19.354;2023-01-08T07:05:16;97553.97;;;1.60;66.87
40285;BME280;25997;50.214;19.354;2023-01-08T07:08:19;97549.91;;;1.65;67.39
40285;BME280;25997;50.214;19.354;2023-01-08T07:11:21;97554.84;;;1.76;67.24
40285;BME280;25997;50.214;19.354;2023-01-08T07:14:23;97546.84;;;1.88;67.14
40285;BME280;25997;50.214;19.354;2023-01-08T07:17:27;97539.53;;;1.97;66.79
40285;BME280;25997;50.214;19.354;2023-01-08T07:20:30;97534.66;;;2.03;66.64
40285;BME280;25997;50.214;19.354;2023-01-08T07:23:34;97543.50;;;2.07;66.70
40285;BME280;25997;50.214;19.354;2023-01-08T07:26:36;97543.13;;;2.17;66.45
40285;BME280;25997;50.214;19.354;2023-01-08T07:29:39;97545.41;;;2.11;65.96
40285;BME280;25997;50.214;19.354;2023-01-08T07:32:43;97541.75;;;2.07;65.71
40285;BME280;25997;50.214;19.354;2023-01-08T07:35:51;97538.22;;;2.05;65.83
40285;BME280;25997;50.214;19.354;2023-01-08T07:38:54;97533.19;;;2.08;66.38
40285;BME280;25997;50.214;19.354;2023-01-08T07:41:57;97533.66;;;2.17;66.62
40285;BME280;25997;50.214;19.354;2023-01-08T07:44:59;97525.06;;;2.18;66.20
40285;BME280;25997;50.214;19.354;2023-01-08T07:48:03;97520.44;;;2.29;66.95
40285;BME280;25997;50.214;19.354;2023-01-08T07:51:07;97508.28;;;2.45;66.77
40285;BME280;25997;50.214;19.354;2023-01-08T07:54:10;97514.38;;;2.63;66.55
40285;BME280;25997;50.214;19.354;2023-01-08T07:57:12;97514.19;;;2.78;66.47
40285;BME280;25997;50.214;19.354;2023-01-08T08:00:15;97510.97;;;3.00;66.03
40285;BME280;25997;50.214;19.354;2023-01-08T08:03:19;97506.38;;;3.13;65.63
40285;BME280;25997;50.214;19.354;2023-01-08T08:06:22;97504.34;;;3.25;65.27
40285;BME280;25997;50.214;19.354;2023-01-08T08:09:24;97506.47;;;3.34;65.48
40285;BME280;25997;50.214;19.354;2023-01-08T08:12:27;97492.13;;;3.61;65.06
40285;BME280;25997;50.214;19.354;2023-01-08T08:15:29;97480.00;;;3.81;64.73
40285;BME280;25997;50.214;19.354;2023-01-08T08:18:33;97478.22;;;3.99;64.71
40285;BME280;25997;50.214;19.354;2023-01-08T08:21:36;97477.19;;;4.16;64.38
40285;BME280;25997;50.214;19.354;2023-01-08T08:24:39;97473.59;;;4.33;63.97
40285;BME280;25997;50.214;19.354;2023-01-08T08:27:42;97470.13;;;4.55;63.87
40285;BME280;25997;50.214;19.354;2023-01-08T08:30:44;97469.97;;;4.71;63.32
40285;BME280;25997;50.214;19.354;2023-01-08T08:33:48;97465.16;;;4.81;63.16
40285;BME280;25997;50.214;19.354;2023-01-08T08:36:51;97471.44;;;4.86;62.67
40285;BME280;25997;50.214;19.354;2023-01-08T08:39:53;97465.56;;;4.92;62.58
40285;BME280;25997;50.214;19.354;2023-01-08T08:42:56;97471.13;;;5.01;62.41
40285;BME280;25997;50.214;19.354;2023-01-08T08:45:59;97461.84;;;5.08;62.04
40285;BME280;25997;50.214;19.354;2023-01-08T08:49:03;97465.59;;;5.16;61.97
40285;BME280;25997;50.214;19.354;2023-01-08T08:52:05;97465.91;;;5.23;61.91
40285;BME280;25997;50.214;19.354;2023-01-08T08:55:08;97468.91;;;5.34;61.68
40285;BME280;25997;50.214;19.354;2023-01-08T08:58:13;97468.00;;;5.33;61.54
40285;BME280;25997;50.214;19.354;2023-01-08T09:01:15;97474.00;;;5.31;61.33
40285;BME280;25997;50.214;19.354;2023-01-08T09:04:19;97472.22;;;5.30;61.24
40285;BME280;25997;50.214;19.354;2023-01-08T09:07:22;97462.66;;;5.29;61.33
40285;BME280;25997;50.214;19.354;2023-01-08T09:10:24;97456.38;;;5.24;61.29
40285;BME280;25997;50.214;19.354;2023-01-08T09:13:27;97467.69;;;5.24;61.28
40285;BME280;25997;50.214;19.354;2023-01-08T09:16:29;97452.06;;;5.24;61.31
40285;BME280;25997;50.214;19.354;2023-01-08T09:19:34;97452.06;;;5.24;61.44
40285;BME280;25997;50.214;19.354;2023-01-08T09:22:37;97456.31;;;5.22;61.28
40285;BME280;25997;50.214;19.354;2023-01-08T09:25:39;97446.75;;;5.21;61.29
40285;BME280;25997;50.214;19.354;2023-01-08T09:28:42;97447.47;;;5.17;61.23
40285;BME280;25997;50.214;19.354;2023-01-08T09:31:44;97430.84;;;5.14;61.38
40285;BME280;25997;50.214;19.354;2023-01-08T09:34:49;97429.97;;;5.13;61.49
40285;BME280;25997;50.214;19.354;2023-01-08T09:37:52;97419.41;;;5.09;61.36
40285;BME280;25997;50.214;19.354;2023-01-08T09:40:59;97418.56;;;5.10;61.42
40285;BME280;25997;50.214;19.354;2023-01-08T09:44:04;97405.88;;;5.19;61.50
40285;BME280;25997;50.214;19.354;2023-01-08T09:47:20;97395.69;;;5.25;61.03
40285;BME280;25997;50.214;19.354;2023-01-08T09:50:28;97386.38;;;5.31;61.01
40285;BME280;25997;50.214;19.354;2023-01-08T09:53:32;97383.94;;;5.36;60.90
40285;BME280;25997;50.214;19.354;2023-01-08T09:56:35;97382.50;;;5.44;60.96
40285;BME280;25997;50.214;19.354;2023-01-08T09:59:41;97381.09;;;5.53;60.84
40285;BME280;25997;50.214;19.354;2023-01-08T10:02:44;97375.22;;;5.59;60.48
40285;BME280;25997;50.214;19.354;2023-01-08T10:05:50;97361.06;;;5.51;60.48
40285;BME280;25997;50.214;19.354;2023-01-08T10:08:52;97348.09;;;5.52;60.63
40285;BME280;25997;50.214;19.354;2023-01-08T10:11:58;97349.53;;;5.70;60.82
40285;BME280;25997;50.214;19.354;2023-01-08T10:15:03;97341.91;;;6.01;60.67
40285;BME280;25997;50.214;19.354;2023-01-08T10:18:09;97344.22;;;6.45;60.16
40285;BME280;25997;50.214;19.354;2023-01-08T10:21:14;97339.22;;;6.81;59.34
40285;BME280;25997;50.214;19.354;2023-01-08T10:24:17;97339.47;;;7.20;59.06
40285;BME280;25997;50.214;19.354;2023-01-08T10:27:31;97334.03;;;7.45;58.53
40285;BME280;25997;50.214;19.354;2023-01-08T10:30:38;97326.00;;;7.68;58.11
40285;BME280;25997;50.214;19.354;2023-01-08T10:33:43;97317.63;;;7.81;57.84
40285;BME280;25997;50.214;19.354;2023-01-08T10:36:47;97317.56;;;8.14;57.73
40285;BME280;25997;50.214;19.354;2023-01-08T10:39:53;97321.94;;;8.52;57.65
40285;BME280;25997;50.214;19.354;2023-01-08T10:43:04;97315.31;;;8.68;56.46
40285;BME280;25997;50.214;19.354;2023-01-08T10:46:16;97316.25;;;8.72;56.17
40285;BME280;25997;50.214;19.354;2023-01-08T10:49:27;97305.44;;;8.56;56.96
40285;BME280;25997;50.214;19.354;2023-01-08T10:52:33;97306.94;;;8.44;57.07
40285;BME280;25997;50.214;19.354;2023-01-08T10:55:36;97307.44;;;8.28;56.95
40285;BME280;25997;50.214;19.354;2023-01-08T10:58:41;97296.63;;;8.13;57.30
40285;BME280;25997;50.214;19.354;2023-01-08T11:01:46;97300.75;;;8.05;56.94
40285;BME280;25997;50.214;19.354;2023-01-08T11:04:49;97297.91;;;7.94;57.56
40285;BME280;25997;50.214;19.354;2023-01-08T11:07:56;97299.03;;;8.05;57.62
40285;BME280;25997;50.214;19.354;2023-01-08T11:11:00;97296.50;;;8.08;57.50
40285;BME280;25997;50.214;19.354;2023-01-08T11:14:05;97299.72;;;7.97;57.47
40285;BME280;25997;50.214;19.354;2023-01-08T11:17:10;97295.19;;;7.91;57.97
40285;BME280;25997;50.214;19.354;2023-01-08T11:20:20;97297.91;;;7.94;57.43
40285;BME280;25997;50.214;19.354;2023-01-08T11:23:25;97291.31;;;7.74;57.13
40285;BME280;25997;50.214;19.354;2023-01-08T11:26:28;97282.13;;;7.57;57.35
40285;BME280;25997;50.214;19.354;2023-01-08T11:29:37;97288.47;;;7.65;56.96
40285;BME280;25997;50.214;19.354;2023-01-08T11:32:45;97286.97;;;7.74;57.08
40285;BME280;25997;50.214;19.354;2023-01-08T11:35:53;97273.97;;;8.13;57.02
40285;BME280;25997;50.214;19.354;2023-01-08T11:38:59;97263.59;;;8.56;56.49
40285;BME280;25997;50.214;19.354;2023-01-08T11:42:25;97271.94;;;8.79;55.35
40285;BME280;25997;50.214;19.354;2023-01-08T11:45:37;97267.94;;;8.96;55.86
40285;BME280;25997;50.214;19.354;2023-01-08T11:48:52;97265.56;;;9.08;54.78
40285;BME280;25997;50.214;19.354;2023-01-08T11:52:08;97258.47;;;9.03;54.90
40285;BME280;25997;50.214;19.354;2023-01-08T11:55:37;97248.56;;;8.88;55.03
40285;BME280;25997;50.214;19.354;2023-01-08T11:59:02;97252.22;;;8.95;55.00
40285;BME280;25997;50.214;19.354;2023-01-08T12:02:18;97250.59;;;9.01;54.64
40285;BME280;25997;50.214;19.354;2023-01-08T12:05:28;97250.75;;;9.10;55.09
40285;BME280;25997;50.214;19.354;2023-01-08T12:08:37;97243.53;;;9.45;54.72
40285;BME280;25997;50.214;19.354;2023-01-08T12:11:52;97244.13;;;9.80;54.16
40285;BME280;25997;50.214;19.354;2023-01-08T12:15:06;97242.91;;;10.11;53.36
40285;BME280;25997;50.214;19.354;2023-01-08T12:18:40;97240.69;;;10.39;53.08
40285;BME280;25997;50.214;19.354;2023-01-08T12:21:59;97234.91;;;10.67;52.82
40285;BME280;25997;50.214;19.354;2023-01-08T12:25:27;97234.44;;;11.00;51.73
40285;BME280;25997;50.214;19.354;2023-01-08T12:28:51;97225.09;;;11.22;50.21
40285;BME280;25997;50.214;19.354;2023-01-08T12:32:08;97225.09;;;11.25;50.97
40285;BME280;25997;50.214;19.354;2023-01-08T12:35:17;97217.44;;;11.49;50.79
40285;BME280;25997;50.214;19.354;2023-01-08T12:38:25;97215.69;;;11.48;49.68
40285;BME280;25997;50.214;19.354;2023-01-08T12:41:31;97208.09;;;11.83;50.06
40285;BME280;25997;50.214;19.354;2023-01-08T12:44:37;97212.13;;;12.63;49.54
40285;BME280;25997;50.214;19.354;2023-01-08T12:47:42;97220.25;;;13.21;48.35
40285;BME280;25997;50.214;19.354;2023-01-08T12:50:55;97221.22;;;13.62;47.72
40285;BME280;25997;50.214;19.354;2023-01-08T12:54:07;97220.34;;;13.84;47.54
40285;BME280;25997;50.214;19.354;2023-01-08T12:57:15;97218.59;;;13.91;46.95
40285;BME280;25997;50.214;19.354;2023-01-08T13:00:26;97221.22;;;14.07;47.16
40285;BME280;25997;50.214;19.354;2023-01-08T13:03:33;97221.16;;;14.41;46.58
40285;BME280;25997;50.214;19.354;2023-01-08T13:06:36;97221.19;;;14.34;45.78
40285;BME280;25997;50.214;19.354;2023-01-08T13:09:39;97227.38;;;14.14;45.81
40285;BME280;25997;50.214;19.354;2023-01-08T13:12:41;97225.63;;;14.10;46.24
40285;BME280;25997;50.214;19.354;2023-01-08T13:15:45;97223.84;;;14.13;45.79
40285;BME280;25997;50.214;19.354;2023-01-08T13:18:53;97217.72;;;13.89;45.98
40285;BME280;25997;50.214;19.354;2023-01-08T13:21:57;97226.53;;;14.04;45.77
40285;BME280;25997;50.214;19.354;2023-01-08T13:25:08;97229.13;;;13.85;44.79
40285;BME280;25997;50.214;19.354;2023-01-08T13:28:26;97225.59;;;13.51;44.83
40285;BME280;25997;50.214;19.354;2023-01-08T13:31:38;97234.31;;;13.11;45.10
40285;BME280;25997;50.214;19.354;2023-01-08T13:34:41;97224.53;;;12.96;45.86
40285;BME280;25997;50.214;19.354;2023-01-08T13:37:45;97224.47;;;12.76;45.64
40285;BME280;25997;50.214;19.354;2023-01-08T13:40:50;97223.56;;;12.68;45.57
40285;BME280;25997;50.214;19.354;2023-01-08T13:43:59;97222.75;;;12.87;45.51
40285;BME280;25997;50.214;19.354;2023-01-08T13:47:17;97232.38;;;12.82;44.61
40285;BME280;25997;50.214;19.354;2023-01-08T13:50:21;97231.38;;;12.49;45.09
40285;BME280;25997;50.214;19.354;2023-01-08T13:53:25;97231.06;;;12.05;45.44
40285;BME280;25997;50.214;19.354;2023-01-08T13:56:29;97230.66;;;11.55;46.04
40285;BME280;25997;50.214;19.354;2023-01-08T13:59:37;97240.41;;;10.87;46.53
40285;BME280;25997;50.214;19.354;2023-01-08T14:02:43;97243.72;;;10.08;47.49
40285;BME280;25997;50.214;19.354;2023-01-08T14:05:50;97246.97;;;9.43;48.43
40285;BME280;25997;50.214;19.354;2023-01-08T14:08:54;97236.59;;;8.99;49.10
40285;BME280;25997;50.214;19.354;2023-01-08T14:11:58;97233.41;;;8.72;49.74
40285;BME280;25997;50.214;19.354;2023-01-08T14:15:01;97234.75;;;8.53;50.21
40285;BME280;25997;50.214;19.354;2023-01-08T14:18:07;97227.47;;;8.39;50.76
40285;BME280;25997;50.214;19.354;2023-01-08T14:21:09;97218.44;;;8.25;50.95
40285;BME280;25997;50.214;19.354;2023-01-08T14:24:14;97217.31;;;8.14;51.23
40285;BME280;25997;50.214;19.354;2023-01-08T14:27:19;97225.69;;;7.98;51.26
40285;BME280;25997;50.214;19.354;2023-01-08T14:30:22;97229.50;;;7.76;51.56
40285;BME280;25997;50.214;19.354;2023-01-08T14:33:30;97230.72;;;7.56;52.13
40285;BME280;25997;50.214;19.354;2023-01-08T14:36:33;97222.34;;;7.33;52.53
40285;BME280;25997;50.214;19.354;2023-01-08T14:39:36;97226.34;;;7.21;52.73
40285;BME280;25997;50.214;19.354;2023-01-08T14:42:41;97218.03;;;7.02;52.99
40285;BME280;25997;50.214;19.354;2023-01-08T14:45:49;97219.44;;;6.88;53.24
40285;BME280;25997;50.214;19.354;2023-01-08T14:48:55;97218.88;;;6.69;53.60
40285;BME280;25997;50.214;19.354;2023-01-08T14:51:59;97226.19;;;6.51;53.82
40285;BME280;25997;50.214;19.354;2023-01-08T14:55:03;97218.72;;;6.33;54.11
40285;BME280;25997;50.214;19.354;2023-01-08T14:58:11;97214.00;;;6.21;54.47
40285;BME280;25997;50.214;19.354;2023-01-08T15:01:16;97214.47;;;6.08;54.57
40285;BME280;25997;50.214;19.354;2023-01-08T15:04:22;97208.84;;;5.95;54.96
40285;BME280;25997;50.214;19.354;2023-01-08T15:07:25;97217.28;;;5.86;55.14
40285;BME280;25997;50.214;19.354;2023-01-08T15:10:33;97215.16;;;5.75;55.25
40285;BME280;25997;50.214;19.354;2023-01-08T15:13:36;97210.59;;;5.67;55.51
40285;BME280;25997;50.214;19.354;2023-01-08T15:16:40;97201.03;;;5.67;55.56
40285;BME280;25997;50.214;19.354;2023-01-08T15:19:46;97174.00;;;5.63;55.59
40285;BME280;25997;50.214;19.354;2023-01-08T15:22:50;97172.94;;;5.56;55.65
40285;BME280;25997;50.214;19.354;2023-01-08T15:28:57;97180.78;;;5.31;55.83
40285;BME280;25997;50.214;19.354;2023-01-08T15:32:07;97184.72;;;5.19;56.36
40285;BME280;25997;50.214;19.354;2023-01-08T15:35:14;97171.53;;;5.13;56.85
40285;BME280;25997;50.214;19.354;2023-01-08T15:38:17;97170.22;;;5.00;56.34
40285;BME280;25997;50.214;19.354;2023-01-08T15:41:23;97165.59;;;4.91;56.55
40285;BME280;25997;50.214;19.354;2023-01-08T15:44:43;97164.56;;;4.86;57.24
40285;BME280;25997;50.214;19.354;2023-01-08T15:47:46;97164.16;;;4.74;56.85
40285;BME280;25997;50.214;19.354;2023-01-08T15:50:51;97166.44;;;4.67;57.17
40285;BME280;25997;50.214;19.354;2023-01-08T15:53:54;97173.16;;;4.60;57.32
40285;BME280;25997;50.214;19.354;2023-01-08T15:56:56;97160.06;;;4.57;57.28
40285;BME280;25997;50.214;19.354;2023-01-08T15:59:59;97156.28;;;4.49;57.78
40285;BME280;25997;50.214;19.354;2023-01-08T16:03:03;97163.88;;;4.43;57.76
40285;BME280;25997;50.214;19.354;2023-01-08T16:06:09;97172.28;;;4.36;57.98
40285;BME280;25997;50.214;19.354;2023-01-08T16:09:12;97171.34;;;4.34;58.21
40285;BME280;25997;50.214;19.354;2023-01-08T16:12:14;97169.63;;;4.35;58.19
40285;BME280;25997;50.214;19.354;2023-01-08T16:15:17;97167.84;;;4.34;58.40
40285;BME280;25997;50.214;19.354;2023-01-08T16:18:19;97169.69;;;4.36;58.33
40285;BME280;25997;50.214;19.354;2023-01-08T16:21:23;97161.50;;;4.26;58.44
40285;BME280;25997;50.214;19.354;2023-01-08T16:24:26;97156.31;;;4.26;58.83